Time;durP1;ratioP1;P1;durP2;ratioP2;P2;SDS_P1;SDS_P2;PMS_P1;PMS_P2;Temp;Humidity;BMP_temperature;BMP_pressure;BME280_temperature;BME280_humidity;BME280_pressure;Samples;Min_cycle;Max_cycle;Signal;HPM_P1;HPM_P2
2022/06/13 00:00:55;;;;;;;7.13;3.73;;;;;;;17.83;100.00;98404.72;5052411;28;20208;-71
2022/06/13 00:03:21;;;;;;;5.27;3.87;;;;;;;17.77;100.00;98403.47;5052594;28;20204;-71
2022/06/13 00:05:48;;;;;;;4.20;3.60;;;;;;;17.64;100.00;98376.22;5052774;28;20208;-71
2022/06/13 00:08:16;;;;;;;5.23;3.90;;;;;;;17.49;100.00;98361.59;5053068;28;20673;-71
2022/06/13 00:10:42;;;;;;;3.90;3.50;;;;;;;17.39;100.00;98352.75;5056367;28;20212;-72
2022/06/13 00:13:09;;;;;;;3.53;3.20;;;;;;;17.44;100.00;98353.16;5056626;28;20628;-71
2022/06/13 00:15:36;;;;;;;6.07;4.17;;;;;;;17.59;100.00;98357.09;5056550;28;20227;-72
2022/06/13 00:18:03;;;;;;;4.30;3.90;;;;;;;17.64;100.00;98357.50;5056618;28;20204;-72
2022/06/13 00:20:29;;;;;;;4.87;4.27;;;;;;;17.69;100.00;98357.88;5056274;28;20678;-72
2022/06/13 00:22:56;;;;;;;5.47;4.20;;;;;;;17.80;100.00;98355.03;5055535;28;20302;-73
2022/06/13 00:25:24;;;;;;;4.80;3.70;;;;;;;17.84;100.00;98356.44;5056029;28;20208;-73
2022/06/13 00:27:51;;;;;;;4.57;3.73;;;;;;;17.91;100.00;98368.25;5056221;28;20662;-73
2022/06/13 00:30:18;;;;;;;4.17;3.40;;;;;;;17.85;100.00;98350.09;5056210;28;20294;-73
2022/06/13 00:32:44;;;;;;;5.23;3.83;;;;;;;17.91;100.00;98352.19;5056366;28;20208;-73
2022/06/13 00:35:11;;;;;;;3.87;3.47;;;;;;;17.98;100.00;98347.13;5056464;28;20211;-73
2022/06/13 00:37:38;;;;;;;4.83;3.80;;;;;;;18.01;100.00;98342.31;5056408;28;20244;-73
2022/06/13 00:40:05;;;;;;;4.23;3.83;;;;;;;18.05;100.00;98348.22;5056597;28;20568;-73
2022/06/13 00:42:33;;;;;;;5.60;3.77;;;;;;;18.07;100.00;98356.91;5055957;28;20214;-73
2022/06/13 00:45:20;;;;;;;4.30;3.90;;;;;;;18.07;100.00;98344.41;5055893;28;20212;-74
2022/06/13 00:47:50;;;;;;;4.17;3.77;;;;;;;18.05;100.00;98327.63;5056169;28;20211;-73
2022/06/13 00:50:20;;;;;;;4.80;3.80;;;;;;;18.04;100.00;98338.50;5054567;28;20219;-73
2022/06/13 00:52:51;;;;;;;4.77;3.63;;;;;;;18.09;100.00;98345.09;5056181;28;20209;-73
2022/06/13 00:55:25;;;;;;;4.20;3.50;;;;;;;18.10;100.00;98330.72;5056041;28;20208;-73
2022/06/13 00:57:54;;;;;;;4.57;4.00;;;;;;;18.08;100.00;98332.72;5056333;28;20216;-74
2022/06/13 01:00:21;;;;;;;5.67;4.00;;;;;;;18.05;100.00;98327.63;5056014;28;20230;-74
2022/06/13 01:02:51;;;;;;;5.47;4.03;;;;;;;18.04;100.00;98325.97;5056028;28;20234;-73
2022/06/13 01:05:21;;;;;;;4.67;3.77;;;;;;;18.04;100.00;98333.16;5056018;28;20212;-74
2022/06/13 01:07:49;;;;;;;5.67;4.07;;;;;;;18.08;100.00;98324.69;5055631;28;20219;-74
2022/06/13 01:13:05;;;;;;;5.63;4.20;;;;;;;18.06;100.00;98320.47;5055144;28;20300;-74
2022/06/13 01:15:58;;;;;;;4.53;4.13;;;;;;;18.07;100.00;98320.34;5053912;28;20223;-74
2022/06/13 01:18:54;;;;;;;5.37;4.40;;;;;;;18.10;100.00;98328.03;5055113;28;20254;-75
2022/06/13 01:21:32;;;;;;;5.93;4.57;;;;;;;18.10;100.00;98333.41;5051679;28;20223;-74
2022/06/13 01:24:34;;;;;;;5.30;4.33;;;;;;;18.10;100.00;98328.03;5055511;28;20220;-75
2022/06/13 01:27:32;;;;;;;5.23;4.30;;;;;;;18.04;100.00;98325.97;5052591;28;20207;-76
2022/06/13 01:30:46;;;;;;;5.90;4.47;;;;;;;18.06;100.00;98320.47;5055355;28;20212;-77
2022/06/13 01:33:20;;;;;;;5.47;4.00;;;;;;;18.06;100.00;98323.16;5054667;28;20234;-74
2022/06/13 01:35:56;;;;;;;4.43;3.73;;;;;;;17.96;100.00;98325.88;5054761;28;20692;-75
2022/06/13 01:38:41;;;;;;;6.80;4.30;;;;;;;17.83;100.00;98322.69;5054858;28;20301;-74
2022/06/13 01:41:17;;;;;;;4.80;4.30;;;;;;;17.78;100.00;98316.94;5052550;28;20226;-74
2022/06/13 01:43:53;;;;;;;6.23;3.97;;;;;;;17.75;100.00;98311.84;5053810;28;20211;-74
2022/06/13 01:46:30;;;;;;;4.67;4.00;;;;;;;17.69;100.00;98312.44;5053836;28;20577;-75
2022/06/13 01:49:04;;;;;;;4.50;4.10;;;;;;;17.63;100.00;98310.34;5054030;28;20669;-75
2022/06/13 01:51:39;;;;;;;5.07;4.30;;;;;;;17.53;100.00;98309.53;5053334;28;20219;-74
2022/06/13 01:54:18;;;;;;;4.53;4.13;;;;;;;17.44;100.00;98299.72;5053814;28;20596;-74
2022/06/13 01:56:52;;;;;;;5.07;4.33;;;;;;;17.38;100.00;98304.81;5054626;28;20208;-74
2022/06/13 01:59:24;;;;;;;4.80;4.23;;;;;;;17.38;100.00;98310.16;5053456;28;20735;-74
2022/06/13 02:01:57;;;;;;;4.83;4.43;;;;;;;17.40;100.00;98303.69;5053848;28;20216;-74
2022/06/13 02:04:29;;;;;;;5.77;4.77;;;;;;;17.49;100.00;98316.16;5053818;28;20636;-75
2022/06/13 02:07:01;;;;;;;5.33;4.30;;;;;;;17.54;100.00;98316.56;5051609;28;20204;-75
2022/06/13 02:09:31;;;;;;;6.23;4.57;;;;;;;17.59;100.00;98333.03;5053644;28;20204;-75
2022/06/13 02:11:58;;;;;;;4.47;3.90;;;;;;;17.67;100.00;98332.31;5053305;28;20590;-75
2022/06/13 02:14:30;;;;;;;3.87;3.57;;;;;;;17.72;100.00;98332.69;5053408;28;20264;-75
2022/06/13 02:17:02;;;;;;;4.63;3.80;;;;;;;17.77;100.00;98341.97;5053248;28;20654;-76
2022/06/13 02:19:33;;;;;;;4.17;3.63;;;;;;;17.79;100.00;98342.66;5053095;28;20692;-75
2022/06/13 02:22:02;;;;;;;3.90;3.50;;;;;;;17.75;100.00;98330.56;5053608;28;20220;-75
2022/06/13 02:24:34;;;;;;;4.30;3.53;;;;;;;17.73;100.00;98343.25;5053091;28;20208;-75
2022/06/13 02:27:03;;;;;;;4.83;3.20;;;;;;;17.67;100.00;98334.97;5053399;28;20208;-76
2022/06/13 02:29:35;;;;;;;3.90;3.07;;;;;;;17.65;100.00;98335.13;5053277;28;20208;-76
2022/06/13 02:32:08;;;;;;;5.67;3.53;;;;;;;17.64;100.00;98337.94;5050666;28;20215;-76
2022/06/13 02:34:40;;;;;;;4.50;3.37;;;;;;;17.59;100.00;98340.19;5053432;28;20232;-76
2022/06/13 02:37:12;;;;;;;3.20;2.80;;;;;;;17.52;100.00;98331.91;5015383;28;1079446;-76
2022/06/13 02:39:44;;;;;;;4.30;2.80;;;;;;;17.39;100.00;98322.53;5053923;28;20295;-76
2022/06/13 02:42:15;;;;;;;3.67;2.90;;;;;;;17.23;100.00;98317.72;5054261;28;20208;-77
2022/06/13 02:44:46;;;;;;;3.53;2.67;;;;;;;17.08;100.00;98318.31;5053949;28;20208;-76
2022/06/13 02:47:20;;;;;;;3.63;2.70;;;;;;;16.87;100.00;98318.44;5053790;28;20216;-75
2022/06/13 02:49:54;;;;;;;3.43;2.93;;;;;;;16.84;100.00;98315.22;5053913;28;20213;-75
2022/06/13 02:52:29;;;;;;;4.27;2.80;;;;;;;16.79;100.00;98323.66;5053918;28;20213;-76
2022/06/13 02:54:58;;;;;;;2.90;2.60;;;;;;;16.78;100.00;98327.31;5053354;28;20239;-76
2022/06/13 02:57:37;;;;;;;5.30;3.00;;;;;;;16.72;100.00;98327.88;5053294;28;20216;-76
2022/06/13 03:00:22;;;;;;;4.77;2.80;;;;;;;16.71;100.00;98328.00;5053629;28;20589;-76
2022/06/13 03:03:10;;;;;;;5.17;3.07;;;;;;;16.63;100.00;98333.22;5053538;28;20228;-77
2022/06/13 03:05:55;;;;;;;4.40;2.80;;;;;;;16.48;100.00;98340.75;5053233;28;20632;-80
2022/06/13 03:08:41;;;;;;;4.57;3.10;;;;;;;16.32;100.00;98329.72;5053651;28;20568;-85
2022/06/13 03:11:23;;;;;;;4.60;3.53;;;;;;;16.20;100.00;98341.47;5042329;28;20208;-83
2022/06/13 03:13:57;;;;;;;4.80;3.43;;;;;;;16.08;100.00;98331.91;5053112;28;20236;-83
2022/06/13 03:16:29;;;;;;;6.00;3.47;;;;;;;16.06;100.00;98342.84;5053741;28;20215;-82
2022/06/13 03:19:04;;;;;;;5.40;3.33;;;;;;;15.93;100.00;98339.53;5053631;28;20215;-82
2022/06/13 03:21:36;;;;;;;4.40;3.20;;;;;;;15.86;100.00;98341.06;5053796;28;20207;-81
2022/06/13 03:24:10;;;;;;;3.73;3.10;;;;;;;15.77;100.00;98348.03;5051833;28;20552;-81
2022/06/13 03:26:43;;;;;;;6.17;3.70;;;;;;;15.72;100.00;98349.41;5053600;28;20216;-81
2022/06/13 03:29:15;;;;;;;5.67;3.20;;;;;;;15.65;100.00;98338.44;5053694;28;20574;-82
2022/06/13 03:31:45;;;;;;;6.53;3.20;;;;;;;15.65;100.00;98349.09;5053664;28;20208;-81
2022/06/13 03:34:18;;;;;;;5.87;2.87;;;;;;;15.62;100.00;98345.84;5053265;28;20811;-80
2022/06/13 03:36:48;;;;;;;6.83;3.23;;;;;;;15.60;100.00;98340.66;5053891;28;20518;-80
2022/06/13 03:39:18;;;;;;;6.57;3.57;;;;;;;15.55;100.00;98342.88;5053239;28;20232;-81
2022/06/13 03:41:49;;;;;;;6.73;3.60;;;;;;;15.57;100.00;98350.75;5053837;28;20210;-80
2022/06/13 03:44:20;;;;;;;6.20;3.60;;;;;;;15.55;100.00;98350.88;5054742;28;20212;-79
2022/06/13 03:46:53;;;;;;;4.93;3.20;;;;;;;15.55;100.00;98350.00;5057904;28;20262;-79
2022/06/13 03:49:27;;;;;;;4.47;3.33;;;;;;;15.53;100.00;98355.47;5056242;28;20216;-79
2022/06/13 03:51:56;;;;;;;7.70;3.73;;;;;;;15.49;100.00;98356.72;5057766;28;20218;-79
2022/06/13 03:54:28;;;;;;;6.30;3.53;;;;;;;15.48;100.00;98356.84;5057779;28;20586;-77
2022/06/13 03:57:00;;;;;;;4.90;3.00;;;;;;;15.43;100.00;98351.91;5058010;28;20670;-77
2022/06/13 03:59:35;;;;;;;4.50;3.10;;;;;;;15.41;100.00;98361.00;5058066;28;20208;-77
2022/06/13 04:02:05;;;;;;;7.00;3.23;;;;;;;15.43;100.00;98361.72;5057721;28;20214;-79
2022/06/13 04:04:37;;;;;;;4.93;3.13;;;;;;;15.47;100.00;98363.16;5057478;28;20215;-78
2022/06/13 04:07:04;;;;;;;5.87;3.50;;;;;;;15.46;100.00;98356.16;5057039;28;20685;-77
2022/06/13 04:09:35;;;;;;;4.73;3.30;;;;;;;15.45;100.00;98351.78;5057152;28;20684;-78
2022/06/13 04:12:20;;;;;;;6.00;3.50;;;;;;;15.43;100.00;98359.91;5056519;28;20204;-76
2022/06/13 04:15:02;;;;;;;3.27;2.70;;;;;;;15.50;100.00;98354.88;5056184;28;20236;-76
2022/06/13 04:17:36;;;;;;;6.87;3.00;;;;;;;15.63;100.00;98360.88;5057689;28;20208;-76
2022/06/13 04:20:16;;;;;;;6.77;3.00;;;;;;;15.78;100.00;98364.88;5056392;28;20223;-76
2022/06/13 04:22:50;;;;;;;6.10;3.07;;;;;;;15.85;100.00;98366.03;5056278;28;20215;-76
2022/06/13 04:25:26;;;;;;;6.23;3.73;;;;;;;15.91;100.00;98365.50;5056714;28;20258;-76
2022/06/13 04:27:58;;;;;;;7.23;3.00;;;;;;;15.98;100.00;98372.84;5056570;28;20204;-76
2022/06/13 04:30:29;;;;;;;4.93;3.00;;;;;;;15.93;100.00;98379.53;5056145;28;20239;-76
2022/06/13 04:33:03;;;;;;;5.30;2.90;;;;;;;15.90;100.00;98382.47;5056243;28;20208;-76
2022/06/13 04:35:32;;;;;;;3.63;2.70;;;;;;;15.86;100.00;98386.38;5055766;28;20723;-76
2022/06/13 04:38:01;;;;;;;7.10;3.33;;;;;;;15.76;100.00;98394.31;5055802;28;20238;-76
2022/06/13 04:40:29;;;;;;;6.10;3.23;;;;;;;15.75;100.00;98386.44;5055426;28;20208;-77
2022/06/13 04:42:58;;;;;;;6.07;3.70;;;;;;;15.68;100.00;98390.63;5055123;28;20614;-76
2022/06/13 04:45:27;;;;;;;5.70;3.20;;;;;;;15.81;100.00;98391.25;5056207;28;20214;-76
2022/06/13 04:47:56;;;;;;;7.27;3.47;;;;;;;15.72;100.00;98397.38;5055826;28;20658;-76
2022/06/13 04:50:30;;;;;;;5.60;3.10;;;;;;;15.72;100.00;98402.72;5055603;28;20678;-76
2022/06/13 04:53:00;;;;;;;4.83;3.23;;;;;;;15.72;99.25;98392.06;5055957;28;20208;-76
2022/06/13 04:55:33;;;;;;;6.10;3.10;;;;;;;15.87;100.00;98404.06;5055094;28;20232;-76
2022/06/13 04:58:00;;;;;;;5.10;2.73;;;;;;;16.38;98.41;98406.56;5055587;28;20239;-76
2022/06/13 05:00:29;;;;;;;4.23;2.57;;;;;;;17.02;92.52;98415.00;5055422;28;20261;-77
2022/06/13 05:02:57;;;;;;;5.23;3.00;;;;;;;17.90;87.85;98420.03;5055813;28;20219;-76
2022/06/13 05:05:36;;;;;;;7.13;2.80;;;;;;;18.77;82.27;98421.41;5056184;28;20966;-78
2022/06/13 05:08:12;;;;;;;5.83;2.20;;;;;;;19.56;77.09;98424.09;5053652;28;20294;-78
2022/06/13 05:10:42;;;;;;;4.13;2.70;;;;;;;20.27;73.58;98424.78;5055561;28;20212;-78
2022/06/13 05:13:09;;;;;;;4.40;2.70;;;;;;;20.63;68.22;98424.50;5055274;28;20302;-78
2022/06/13 05:15:36;;;;;;;6.37;2.80;;;;;;;21.13;66.53;98438.78;5054968;28;20697;-76
2022/06/13 05:18:25;;;;;;;7.27;2.70;;;;;;;21.67;65.66;98440.91;5055006;28;20208;-78
2022/06/13 05:21:01;;;;;;;12.97;3.13;;;;;;;21.86;61.58;98443.28;5055560;28;20219;-78
2022/06/13 05:23:46;;;;;;;5.80;2.63;;;;;;;21.62;59.57;98439.69;5055339;28;20211;-79
2022/06/13 05:26:13;;;;;;;8.70;2.87;;;;;;;21.67;60.41;98443.63;5055290;28;20249;-79
2022/06/13 05:28:40;;;;;;;5.20;2.53;;;;;;;21.96;60.86;98438.56;5055841;28;20221;-80
2022/06/13 05:31:09;;;;;;;7.90;2.70;;;;;;;22.40;57.40;98447.06;5056061;28;20218;-79
2022/06/13 05:33:38;;;;;;;5.33;2.60;;;;;;;22.63;57.08;98453.44;5053369;28;20254;-79
2022/06/13 05:36:07;;;;;;;5.90;2.83;;;;;;;22.90;56.57;98453.84;5054751;28;20228;-80
2022/06/13 05:38:40;;;;;;;6.13;2.90;;;;;;;22.97;54.48;98457.50;5055691;28;20236;-80
2022/06/13 05:41:07;;;;;;;4.77;2.30;;;;;;;23.16;54.80;98456.25;5055362;28;20212;-79
2022/06/13 05:43:33;;;;;;;4.50;2.77;;;;;;;23.69;56.18;98464.34;5055248;28;20212;-79
2022/06/13 05:46:00;;;;;;;6.83;2.47;;;;;;;24.20;53.79;98469.03;5055138;28;20231;-80
2022/06/13 05:48:27;;;;;;;6.73;2.53;;;;;;;23.90;51.95;98465.38;5055166;28;20215;-80
2022/06/13 05:50:54;;;;;;;6.20;2.60;;;;;;;23.58;50.86;98472.88;5055073;28;20211;-79
2022/06/13 05:53:23;;;;;;;5.40;2.40;;;;;;;23.52;51.56;98474.41;5054693;28;20689;-80
2022/06/13 05:55:53;;;;;;;5.43;2.13;;;;;;;23.67;50.50;98480.75;5054491;28;20232;-79
2022/06/13 05:58:22;;;;;;;6.33;2.50;;;;;;;23.99;50.80;98477.81;5053239;28;20212;-80
2022/06/13 06:00:52;;;;;;;4.97;2.30;;;;;;;24.03;49.55;98486.41;5054979;28;20230;-79
2022/06/13 06:03:18;;;;;;;4.03;2.60;;;;;;;24.23;49.83;98487.56;5054807;28;20557;-79
2022/06/13 06:05:45;;;;;;;3.33;2.23;;;;;;;24.16;47.85;98492.00;5054565;28;20230;-79
2022/06/13 06:08:19;;;;;;;4.37;2.30;;;;;;;23.62;49.26;98488.53;5053419;28;20215;-78
2022/06/13 06:10:48;;;;;;;6.30;2.43;;;;;;;23.57;49.37;98501.72;5054587;28;20204;-79
2022/06/13 06:13:16;;;;;;;4.67;2.07;;;;;;;23.61;49.26;98500.34;5054256;28;20210;-80
2022/06/13 06:15:45;;;;;;;7.13;2.53;;;;;;;23.74;49.26;98514.09;5053886;28;20767;-79
2022/06/13 06:18:12;;;;;;;6.30;2.50;;;;;;;23.76;48.90;98503.94;5054048;28;20683;-79
2022/06/13 06:20:39;;;;;;;3.03;2.40;;;;;;;23.95;49.66;98503.50;5054074;28;20666;-79
2022/06/13 06:23:06;;;;;;;5.00;2.20;;;;;;;23.56;49.44;98508.13;5054292;28;20210;-77
2022/06/13 06:25:34;;;;;;;5.30;2.60;;;;;;;23.83;48.05;98504.06;5052646;28;20214;-79
2022/06/13 06:28:01;;;;;;;4.07;2.33;;;;;;;23.88;46.69;98507.94;5053623;28;20212;-79
2022/06/13 06:30:29;;;;;;;5.53;2.77;;;;;;;23.83;46.58;98504.06;5054437;28;20218;-72
2022/06/13 06:32:56;;;;;;;5.53;2.80;;;;;;;23.78;46.75;98512.69;5053871;28;20266;-77
2022/06/13 06:35:25;;;;;;;4.57;2.23;;;;;;;23.86;47.46;98504.56;5053894;28;20240;-78
2022/06/13 06:37:54;;;;;;;4.13;2.53;;;;;;;23.97;46.67;98514.97;5053914;28;20235;-78
2022/06/13 06:40:23;;;;;;;5.70;2.20;;;;;;;23.78;47.15;98523.50;5053816;28;20220;-76
2022/06/13 06:42:50;;;;;;;5.50;2.50;;;;;;;23.53;45.67;98521.16;5053473;28;20220;-74
2022/06/13 06:45:18;;;;;;;3.43;2.10;;;;;;;23.49;48.01;98523.34;5053948;28;20231;-76
2022/06/13 06:47:46;;;;;;;5.43;2.30;;;;;;;23.96;47.02;98517.84;5053367;28;20216;-75
2022/06/13 06:50:15;;;;;;;3.90;2.20;;;;;;;24.45;46.15;98516.41;5051941;28;20219;-74
2022/06/13 06:52:42;;;;;;;5.40;2.33;;;;;;;;;;5053282;28;20214;-74
2022/06/13 07:00:40;;;;;;;6.40;2.40;;;;;;;23.84;46.87;98527.34;5053407;28;20322;-74
2022/06/13 07:03:08;;;;;;;3.87;2.20;;;;;;;23.59;47.05;98528.53;5053519;28;20214;-73
2022/06/13 07:05:35;;;;;;;4.00;2.17;;;;;;;23.32;47.80;98537.94;5053953;28;20549;-74
2022/06/13 07:08:01;;;;;;;4.13;2.33;;;;;;;22.41;49.98;98534.94;5053606;28;20212;-84
2022/06/13 07:10:28;;;;;;;6.83;2.50;;;;;;;22.13;51.49;98530.94;5053690;28;20315;-85
2022/06/13 07:12:55;;;;;;;5.33;2.10;;;;;;;21.92;53.24;98528.72;5053641;28;20208;-84
2022/06/13 07:15:22;;;;;;;6.50;2.43;;;;;;;21.02;55.78;98540.41;5051857;28;20270;-85
2022/06/13 07:17:48;;;;;;;5.73;2.40;;;;;;;20.36;59.29;98542.81;5052819;28;20207;-83
2022/06/13 07:20:17;;;;;;;5.17;2.70;;;;;;;19.90;61.66;98542.22;5053728;28;20208;-83
2022/06/13 07:22:47;;;;;;;5.87;2.73;;;;;;;19.78;63.44;98538.94;5053424;28;20212;-82
2022/06/13 07:25:17;;;;;;;4.80;2.70;;;;;;;19.53;61.33;98544.22;5053631;28;20211;-84
2022/06/13 07:27:43;;;;;;;3.50;2.67;;;;;;;19.49;63.71;98541.00;5053422;28;20208;-81
2022/06/13 07:30:11;;;;;;;4.43;2.47;;;;;;;19.25;64.45;98546.09;5053410;28;20208;-77
2022/06/13 07:32:37;;;;;;;5.80;2.70;;;;;;;19.20;63.24;98548.38;5053105;28;20211;-85
2022/06/13 07:35:05;;;;;;;4.53;2.50;;;;;;;19.27;64.05;98554.81;5053380;28;20646;-82
2022/06/13 07:40:17;;;;;;;3.63;2.40;;;;;;;19.44;64.25;98556.69;5053076;28;20214;-80
2022/06/13 07:42:47;;;;;;;8.80;3.03;;;;;;;19.54;63.28;98561.97;5051492;28;20703;-76
2022/06/13 07:45:16;;;;;;;7.63;2.70;;;;;;;19.60;63.41;98556.88;5053175;28;20204;-83
2022/06/13 07:47:43;;;;;;;4.37;2.93;;;;;;;19.68;63.52;98565.00;5053635;28;20692;-83
2022/06/13 07:50:12;;;;;;;4.87;2.27;;;;;;;19.78;63.32;98560.41;5053613;28;20216;-80
2022/06/13 07:52:39;;;;;;;4.87;2.17;;;;;;;20.00;63.34;98559.94;5053142;28;20214;-83
2022/06/13 07:55:07;;;;;;;4.13;2.23;;;;;;;20.43;60.07;98564.50;5053243;28;20216;-76
2022/06/13 07:57:33;;;;;;;6.40;2.70;;;;;;;20.56;58.65;98563.13;5053076;28;20210;-82
2022/06/13 08:00:00;;;;;;;5.90;3.40;;;;;;;20.84;59.24;98563.78;5053252;28;20216;-81
2022/06/13 08:02:31;;;;;;;7.90;2.77;;;;;;;20.85;58.79;98563.59;5053533;28;20215;-80
2022/06/13 08:04:58;;;;;;;6.73;2.43;;;;;;;20.94;59.20;98561.84;5053034;28;20236;-83
2022/06/13 08:07:24;;;;;;;4.30;2.63;;;;;;;20.97;56.86;98566.91;5051377;28;20307;-81
2022/06/13 08:09:52;;;;;;;6.20;2.90;;;;;;;20.81;56.72;98567.63;5053350;28;20212;-81
2022/06/13 08:12:21;;;;;;;4.00;2.40;;;;;;;20.68;56.46;98559.16;5053291;28;20211;-81
2022/06/13 08:14:48;;;;;;;6.30;2.60;;;;;;;20.57;59.19;98570.16;5052556;28;20204;-79
2022/06/13 08:17:16;;;;;;;7.27;2.60;;;;;;;20.66;58.78;98569.19;5053253;28;20263;-82
2022/06/13 08:19:42;;;;;;;5.23;2.80;;;;;;;20.73;59.21;98564.88;5053158;28;20298;-80
2022/06/13 08:22:09;;;;;;;5.93;2.60;;;;;;;20.71;58.52;98585.69;5052813;28;20216;-80
2022/06/13 08:24:36;;;;;;;4.70;2.40;;;;;;;20.79;56.49;98579.53;5052378;28;20218;-82
2022/06/13 08:27:04;;;;;;;3.23;2.33;;;;;;;20.91;57.15;98576.44;5053615;28;20214;-81
2022/06/13 08:29:31;;;;;;;5.80;2.67;;;;;;;21.25;57.90;98574.59;5052559;28;20311;-81
2022/06/13 08:31:57;;;;;;;5.50;2.67;;;;;;;21.67;58.19;98583.50;5056514;28;20208;-81
2022/06/13 08:34:24;;;;;;;5.50;2.70;;;;;;;21.79;55.64;98576.81;5055020;28;20212;-80
2022/06/13 08:36:52;;;;;;;4.50;2.43;;;;;;;21.64;56.99;98586.50;5055950;28;20334;-81
2022/06/13 08:39:19;;;;;;;4.30;2.90;;;;;;;21.45;55.74;98583.25;5056156;28;20703;-82
2022/06/13 08:41:55;;;;;;;4.90;3.00;;;;;;;21.17;56.67;98577.25;5056851;28;20208;-83
2022/06/13 08:44:48;;;;;;;3.27;2.53;;;;;;;21.05;56.88;98586.59;5056938;28;20212;-80
2022/06/13 08:47:22;;;;;;;4.47;2.37;;;;;;;21.18;59.06;98591.53;5049233;28;20208;-77
2022/06/13 08:49:58;;;;;;;6.50;2.90;;;;;;;21.25;55.49;98592.56;5056433;28;20687;-81
2022/06/13 08:52:30;;;;;;;5.07;2.53;;;;;;;21.13;54.91;98592.00;5056644;28;20203;-80
2022/06/13 08:55:10;;;;;;;8.30;2.87;;;;;;;21.17;56.59;98596.06;5056490;28;20215;-82
2022/06/13 08:57:38;;;;;;;5.93;3.23;;;;;;;21.32;55.22;98596.28;5056180;28;20208;-79
2022/06/13 09:00:11;;;;;;;4.30;2.40;;;;;;;21.66;53.76;98587.19;5055091;28;20216;-79
2022/06/13 09:02:44;;;;;;;4.17;2.20;;;;;;;22.00;51.59;98595.19;5056519;28;20210;-81
2022/06/13 09:05:14;;;;;;;6.23;2.60;;;;;;;21.93;51.79;98599.53;5056050;28;20218;-77
2022/06/13 09:07:50;;;;;;;7.10;2.53;;;;;;;21.67;52.15;98599.66;5055807;28;20204;-77
2022/06/13 09:10:25;;;;;;;4.27;2.50;;;;;;;21.76;52.92;98601.34;5056108;28;20210;-78
2022/06/13 09:12:57;;;;;;;5.03;2.87;;;;;;;21.91;51.71;98598.88;5055905;28;20210;-79
2022/06/13 09:15:31;;;;;;;3.57;2.30;;;;;;;21.92;50.19;98609.47;5055466;28;20212;-83
2022/06/13 09:18:04;;;;;;;6.03;2.53;;;;;;;21.95;49.24;98611.81;5055331;28;20240;-83
2022/06/13 09:20:38;;;;;;;6.10;2.60;;;;;;;22.11;48.75;98608.31;5055607;28;20222;-82
2022/06/13 09:23:15;;;;;;;4.00;2.30;;;;;;;21.95;50.49;98605.63;5055691;28;20214;-81
2022/06/13 09:25:52;;;;;;;4.20;2.30;;;;;;;21.86;50.77;98610.13;5053734;28;20222;-83
2022/06/13 09:28:22;;;;;;;3.37;2.33;;;;;;;22.04;52.19;98608.16;5055459;28;20218;-82
2022/06/13 09:30:57;;;;;;;4.93;2.40;;;;;;;22.16;51.27;98604.13;5055347;28;20203;-82
2022/06/13 09:33:29;;;;;;;6.23;2.80;;;;;;;22.27;49.26;98602.94;5035187;28;20222;-83
2022/06/13 09:35:59;;;;;;;5.67;2.90;;;;;;;21.93;50.12;98604.91;5034928;28;20711;-83
2022/06/13 09:38:28;;;;;;;3.77;2.30;;;;;;;21.95;52.72;98609.13;5035346;28;20721;-82
2022/06/13 09:41:13;;;;;;;7.97;2.50;;;;;;;22.10;52.04;98610.19;5035127;28;20235;-81
2022/06/13 09:43:48;;;;;;;7.10;2.80;;;;;;;22.40;49.99;98609.53;5035091;28;20204;-79
2022/06/13 09:46:25;;;;;;;5.73;2.20;;;;;;;22.39;50.64;98602.47;5035046;28;20234;-81
2022/06/13 09:49:06;;;;;;;5.07;2.30;;;;;;;22.47;50.45;98607.00;5035014;28;20204;-80
2022/06/13 09:51:44;;;;;;;4.10;2.57;;;;;;;22.31;45.98;98610.53;5033585;28;20208;-76
2022/06/13 09:54:21;;;;;;;4.30;2.57;;;;;;;22.14;45.48;98608.81;5035077;28;20588;-74
2022/06/13 09:57:01;;;;;;;3.33;2.20;;;;;;;22.03;45.83;98611.00;5034575;28;20233;-74
2022/06/13 09:59:44;;;;;;;3.83;2.07;;;;;;;21.93;48.50;98611.16;5034561;28;20219;-74
2022/06/13 10:02:18;;;;;;;3.97;2.07;;;;;;;21.92;47.99;98609.47;5034883;28;20212;-74
2022/06/13 10:04:54;;;;;;;4.90;2.43;;;;;;;22.20;50.35;98608.16;5034695;28;20204;-74
2022/06/13 10:07:23;;;;;;;7.10;2.57;;;;;;;22.60;46.35;98605.50;5034714;28;20219;-74
2022/06/13 10:09:56;;;;;;;5.07;2.30;;;;;;;22.46;48.06;98613.41;5034750;28;20209;-74
2022/06/13 10:12:35;;;;;;;4.30;2.30;;;;;;;22.60;46.50;98600.13;5034350;28;20223;-74
2022/06/13 10:15:24;;;;;;;4.90;2.77;;;;;;;23.05;45.68;98596.84;5034306;28;20303;-74
2022/06/13 10:18:06;;;;;;;3.53;2.37;;;;;;;23.00;43.72;98602.75;5032708;28;20251;-74
2022/06/13 10:20:38;;;;;;;3.20;2.10;;;;;;;22.77;43.84;98604.47;5034650;28;20213;-74
2022/06/13 10:23:13;;;;;;;2.77;1.90;;;;;;;22.77;44.66;98603.63;5035290;28;20220;-74
2022/06/13 10:25:52;;;;;;;3.90;2.10;;;;;;;22.89;44.06;98608.50;5033814;28;20204;-76
2022/06/13 10:28:45;;;;;;;3.57;2.30;;;;;;;23.03;44.71;98609.66;5034456;28;20208;-74
2022/06/13 10:31:22;;;;;;;3.57;2.07;;;;;;;23.33;45.26;98607.06;5036190;28;20208;-74
2022/06/13 10:34:04;;;;;;;5.50;2.53;;;;;;;23.59;42.54;98607.63;5054309;28;20211;-74
2022/06/13 10:36:39;;;;;;;2.63;2.00;;;;;;;23.40;42.35;98609.91;5053522;28;20246;-75
2022/06/13 10:39:10;;;;;;;3.13;2.13;;;;;;;23.22;45.03;98617.41;5053856;28;20235;-74
2022/06/13 10:41:40;;;;;;;4.17;2.33;;;;;;;23.22;43.91;98609.31;5052128;28;20588;-74
2022/06/13 10:44:11;;;;;;;3.33;1.90;;;;;;;23.25;42.32;98607.09;5054201;28;20209;-74
2022/06/13 10:46:43;;;;;;;5.10;1.80;;;;;;;23.18;41.50;98611.50;5053858;28;20298;-77
2022/06/13 10:49:17;;;;;;;3.73;1.90;;;;;;;23.01;41.10;98609.81;5053904;28;20215;-74
2022/06/13 10:51:46;;;;;;;3.33;1.70;;;;;;;22.98;43.12;98610.16;5053941;28;20237;-74
2022/06/13 10:54:17;;;;;;;3.90;2.03;;;;;;;23.07;41.22;98598.34;5053698;28;20691;-74
2022/06/13 10:56:49;;;;;;;5.60;2.30;;;;;;;23.08;43.68;98605.44;5053351;28;20236;-74
2022/06/13 10:59:24;;;;;;;4.37;1.97;;;;;;;23.17;41.56;98598.19;5053288;28;20699;-75
2022/06/13 11:01:58;;;;;;;3.90;1.90;;;;;;;23.02;42.98;98600.72;5053310;28;20207;-75
2022/06/13 11:04:27;;;;;;;4.33;1.90;;;;;;;23.09;41.21;98601.72;5053343;28;20691;-74
2022/06/13 11:06:57;;;;;;;3.97;2.30;;;;;;;23.07;42.24;98602.91;5053648;28;20208;-74
2022/06/13 11:09:28;;;;;;;3.03;1.80;;;;;;;23.20;41.14;98620.25;5051847;28;20250;-76
2022/06/13 11:11:57;;;;;;;3.93;1.70;;;;;;;23.41;41.94;98617.81;5053563;28;20211;-74
2022/06/13 11:14:32;;;;;;;3.70;1.80;;;;;;;23.61;40.56;98611.00;5053629;28;20209;-74
2022/06/13 11:22:41;;;;;;;4.20;2.47;;;;;;;23.67;39.88;98610.28;5053040;28;20215;-75
2022/06/13 11:25:19;;;;;;;3.53;1.73;;;;;;;23.52;39.64;98606.63;5053643;28;20219;-74
2022/06/13 11:27:49;;;;;;;4.33;2.10;;;;;;;23.44;40.93;98612.09;5053224;28;20212;-83
2022/06/13 11:30:36;;;;;;;3.57;2.00;;;;;;;23.32;40.70;98597.28;5053427;28;20699;-81
2022/06/13 11:33:05;;;;;;;3.53;1.90;;;;;;;23.17;41.88;98603.59;5051528;28;20606;-81
2022/06/13 11:35:39;;;;;;;5.67;2.00;;;;;;;23.09;40.58;98609.81;5053291;28;20216;-80
2022/06/13 11:38:19;;;;;;;3.07;1.90;;;;;;;23.22;40.81;98596.63;5053085;28;20244;-76
2022/06/13 11:40:56;;;;;;;2.20;1.67;;;;;;;23.41;41.92;98609.72;5053081;28;20212;-82
2022/06/13 11:43:34;;;;;;;3.60;2.13;;;;;;;23.46;40.38;98610.03;5053069;28;20214;-82
2022/06/13 11:46:03;;;;;;;4.20;2.03;;;;;;;23.41;39.71;98607.00;5053088;28;20239;-82
2022/06/13 11:48:30;;;;;;;2.77;1.97;;;;;;;23.33;39.18;98604.34;5052797;28;20674;-78
2022/06/13 11:51:01;;;;;;;3.40;1.70;;;;;;;23.36;40.98;98603.19;5052924;28;20216;-82
2022/06/13 11:53:38;;;;;;;3.37;1.80;;;;;;;23.48;41.49;98602.59;5052864;28;20602;-82
2022/06/13 11:56:09;;;;;;;2.53;1.63;;;;;;;23.76;41.44;98608.38;5052936;28;20295;-82
2022/06/13 11:58:40;;;;;;;3.40;2.13;;;;;;;24.07;41.83;98599.28;5053092;28;20245;-83
2022/06/13 12:01:18;;;;;;;3.23;2.00;;;;;;;24.19;41.40;98614.03;5051997;28;20215;-82
2022/06/13 12:03:51;;;;;;;2.80;1.90;;;;;;;24.02;39.75;98604.38;5053042;28;20214;-81
2022/06/13 12:06:19;;;;;;;2.90;2.20;;;;;;;24.00;39.27;98598.31;5056214;28;20204;-82
2022/06/13 12:08:51;;;;;;;2.67;1.70;;;;;;;23.68;40.05;98603.88;5057173;28;20208;-79
2022/06/13 12:11:23;;;;;;;2.43;2.03;;;;;;;23.63;39.94;98606.25;5056851;28;20258;-81